sensor_id;sensor_type;location;lat;lon;timestamp;temperature;humidity
40638;DHT22;26336;44.696;10.622;2023-07-31T00:00:53;25.60;99.90
40638;DHT22;26336;44.696;10.622;2023-07-31T00:04:03;25.60;99.90
40638;DHT22;26336;44.696;10.622;2023-07-31T00:07:07;25.50;99.90
40638;DHT22;26336;44.696;10.622;2023-07-31T00:10:15;25.60;99.90
40638;DHT22;26336;44.696;10.622;2023-07-31T00:13:19;25.50;99.90
40638;DHT22;26336;44.696;10.622;2023-07-31T00:16:23;25.60;99.90
40638;DHT22;26336;44.696;10.622;2023-07-31T00:19:32;25.70;99.90
40638;DHT22;26336;44.696;10.622;2023-07-31T00:22:44;25.50;99.90
40638;DHT22;26336;44.696;10.622;2023-07-31T00:25:53;25.50;99.90
40638;DHT22;26336;44.696;10.622;2023-07-31T00:28:57;25.50;99.90
40638;DHT22;26336;44.696;10.622;2023-07-31T00:32:01;25.50;99.90
40638;DHT22;26336;44.696;10.622;2023-07-31T00:35:08;25.50;99.90
40638;DHT22;26336;44.696;10.622;2023-07-31T00:38:17;25.50;99.90
40638;DHT22;26336;44.696;10.622;2023-07-31T00:41:28;25.50;99.90
40638;DHT22;26336;44.696;10.622;2023-07-31T00:44:57;25.50;99.90
40638;DHT22;26336;44.696;10.622;2023-07-31T00:48:05;25.50;99.90
40638;DHT22;26336;44.696;10.622;2023-07-31T00:51:17;25.50;99.90
40638;DHT22;26336;44.696;10.622;2023-07-31T00:54:22;25.50;99.90
40638;DHT22;26336;44.696;10.622;2023-07-31T00:57:33;25.40;99.90
40638;DHT22;26336;44.696;10.622;2023-07-31T01:00:42;25.40;99.90
40638;DHT22;26336;44.696;10.622;2023-07-31T01:03:46;25.40;99.90
40638;DHT22;26336;44.696;10.622;2023-07-31T01:07:13;25.50;99.90
40638;DHT22;26336;44.696;10.622;2023-07-31T01:10:27;25.50;99.90
40638;DHT22;26336;44.696;10.622;2023-07-31T01:13:50;25.50;99.90
40638;DHT22;26336;44.696;10.622;2023-07-31T01:16:57;25.50;99.90
40638;DHT22;26336;44.696;10.622;2023-07-31T01:20:03;25.60;99.90
40638;DHT22;26336;44.696;10.622;2023-07-31T01:26:49;25.80;99.90
40638;DHT22;26336;44.696;10.622;2023-07-31T01:33:08;25.90;99.90
40638;DHT22;26336;44.696;10.622;2023-07-31T01:36:12;25.90;99.90
40638;DHT22;26336;44.696;10.622;2023-07-31T01:39:17;25.90;99.90
40638;DHT22;26336;44.696;10.622;2023-07-31T01:42:24;26.00;99.90
40638;DHT22;26336;44.696;10.622;2023-07-31T01:45:31;26.00;99.90
40638;DHT22;26336;44.696;10.622;2023-07-31T01:48:35;26.00;99.90
40638;DHT22;26336;44.696;10.622;2023-07-31T01:51:40;26.00;99.90
40638;DHT22;26336;44.696;10.622;2023-07-31T01:54:45;26.00;99.90
40638;DHT22;26336;44.696;10.622;2023-07-31T01:57:49;26.00;99.90
40638;DHT22;26336;44.696;10.622;2023-07-31T02:00:53;26.00;99.90
40638;DHT22;26336;44.696;10.622;2023-07-31T02:03:57;26.00;99.90
40638;DHT22;26336;44.696;10.622;2023-07-31T02:07:01;25.80;99.90
40638;DHT22;26336;44.696;10.622;2023-07-31T02:10:05;25.80;99.90
40638;DHT22;26336;44.696;10.622;2023-07-31T02:13:09;25.70;99.90
40638;DHT22;26336;44.696;10.622;2023-07-31T02:16:13;25.70;99.90
40638;DHT22;26336;44.696;10.622;2023-07-31T02:19:18;25.70;99.90
40638;DHT22;26336;44.696;10.622;2023-07-31T02:22:21;25.70;99.90
40638;DHT22;26336;44.696;10.622;2023-07-31T02:25:25;25.60;99.90
40638;DHT22;26336;44.696;10.622;2023-07-31T02:28:30;25.60;99.90
40638;DHT22;26336;44.696;10.622;2023-07-31T02:31:35;25.60;99.90
40638;DHT22;26336;44.696;10.622;2023-07-31T02:34:41;25.60;99.90
40638;DHT22;26336;44.696;10.622;2023-07-31T02:37:46;25.50;99.90
40638;DHT22;26336;44.696;10.622;2023-07-31T02:40:50;25.50;99.90
40638;DHT22;26336;44.696;10.622;2023-07-31T02:43:53;25.50;99.90
40638;DHT22;26336;44.696;10.622;2023-07-31T02:46:57;25.40;99.90
40638;DHT22;26336;44.696;10.622;2023-07-31T02:50:03;25.40;99.90
40638;DHT22;26336;44.696;10.622;2023-07-31T02:53:09;25.40;99.90
40638;DHT22;26336;44.696;10.622;2023-07-31T02:56:13;25.40;99.90
40638;DHT22;26336;44.696;10.622;2023-07-31T02:59:17;25.40;99.90
40638;DHT22;26336;44.696;10.622;2023-07-31T03:02:22;25.40;99.90
40638;DHT22;26336;44.696;10.622;2023-07-31T03:05:27;25.30;99.90
40638;DHT22;26336;44.696;10.622;2023-07-31T03:08:31;25.30;99.90
40638;DHT22;26336;44.696;10.622;2023-07-31T03:11:35;25.30;99.90
40638;DHT22;26336;44.696;10.622;2023-07-31T03:14:39;25.30;99.90
40638;DHT22;26336;44.696;10.622;2023-07-31T03:17:43;25.30;99.90
40638;DHT22;26336;44.696;10.622;2023-07-31T03:20:47;25.30;99.90
40638;DHT22;26336;44.696;10.622;2023-07-31T03:23:50;25.20;99.90
40638;DHT22;26336;44.696;10.622;2023-07-31T03:26:57;25.20;99.90
40638;DHT22;26336;44.696;10.622;2023-07-31T03:30:02;25.20;99.90
40638;DHT22;26336;44.696;10.622;2023-07-31T03:33:08;25.20;99.90
40638;DHT22;26336;44.696;10.622;2023-07-31T03:36:12;25.20;99.90
40638;DHT22;26336;44.696;10.622;2023-07-31T03:39:16;25.20;99.90
40638;DHT22;26336;44.696;10.622;2023-07-31T03:42:20;25.10;99.90
40638;DHT22;26336;44.696;10.622;2023-07-31T03:45:24;25.10;99.90
40638;DHT22;26336;44.696;10.622;2023-07-31T03:48:28;25.10;99.90
40638;DHT22;26336;44.696;10.622;2023-07-31T03:51:32;25.10;99.90
40638;DHT22;26336;44.696;10.622;2023-07-31T03:54:36;25.00;99.90
40638;DHT22;26336;44.696;10.622;2023-07-31T03:57:40;25.00;99.90
40638;DHT22;26336;44.696;10.622;2023-07-31T04:00:45;25.00;99.90
40638;DHT22;26336;44.696;10.622;2023-07-31T04:03:49;25.00;99.90
40638;DHT22;26336;44.696;10.622;2023-07-31T04:06:53;25.00;99.90
40638;DHT22;26336;44.696;10.622;2023-07-31T04:09:57;25.00;99.90
40638;DHT22;26336;44.696;10.622;2023-07-31T04:13:01;25.00;99.90
40638;DHT22;26336;44.696;10.622;2023-07-31T04:16:05;25.00;99.90
40638;DHT22;26336;44.696;10.622;2023-07-31T04:19:09;25.00;99.90
40638;DHT22;26336;44.696;10.622;2023-07-31T04:22:17;24.90;99.90
40638;DHT22;26336;44.696;10.622;2023-07-31T04:25:21;24.90;99.80
40638;DHT22;26336;44.696;10.622;2023-07-31T04:28:26;24.90;99.70
40638;DHT22;26336;44.696;10.622;2023-07-31T04:31:29;24.90;99.70
40638;DHT22;26336;44.696;10.622;2023-07-31T04:34:34;24.90;99.90
40638;DHT22;26336;44.696;10.622;2023-07-31T04:37:38;24.90;99.90
40638;DHT22;26336;44.696;10.622;2023-07-31T04:40:42;24.90;99.90
40638;DHT22;26336;44.696;10.622;2023-07-31T04:43:46;24.90;99.90
40638;DHT22;26336;44.696;10.622;2023-07-31T04:46:51;24.90;99.90
40638;DHT22;26336;44.696;10.622;2023-07-31T04:49:55;24.80;99.90
40638;DHT22;26336;44.696;10.622;2023-07-31T04:52:59;24.80;99.90
40638;DHT22;26336;44.696;10.622;2023-07-31T04:56:03;24.80;99.90
40638;DHT22;26336;44.696;10.622;2023-07-31T04:59:07;24.80;99.90
40638;DHT22;26336;44.696;10.622;2023-07-31T05:02:12;24.80;99.90
40638;DHT22;26336;44.696;10.622;2023-07-31T05:05:17;24.80;99.90
40638;DHT22;26336;44.696;10.622;2023-07-31T05:08:21;24.80;99.90
40638;DHT22;26336;44.696;10.622;2023-07-31T05:11:25;24.80;99.90
40638;DHT22;26336;44.696;10.622;2023-07-31T05:14:29;24.70;99.90
40638;DHT22;26336;44.696;10.622;2023-07-31T05:17:33;24.70;99.90
40638;DHT22;26336;44.696;10.622;2023-07-31T05:20:37;24.70;99.90
40638;DHT22;26336;44.696;10.622;2023-07-31T05:23:41;24.70;99.90
40638;DHT22;26336;44.696;10.622;2023-07-31T05:26:45;24.70;99.90
40638;DHT22;26336;44.696;10.622;2023-07-31T05:29:48;24.70;99.90
40638;DHT22;26336;44.696;10.622;2023-07-31T05:32:52;24.70;99.90
40638;DHT22;26336;44.696;10.622;2023-07-31T05:35:57;24.70;99.90
40638;DHT22;26336;44.696;10.622;2023-07-31T05:39:04;24.80;99.90
40638;DHT22;26336;44.696;10.622;2023-07-31T05:42:12;24.80;99.90
40638;DHT22;26336;44.696;10.622;2023-07-31T05:45:16;24.80;99.90
40638;DHT22;26336;44.696;10.622;2023-07-31T05:48:20;24.80;99.90
40638;DHT22;26336;44.696;10.622;2023-07-31T05:51:24;24.70;99.90
40638;DHT22;26336;44.696;10.622;2023-07-31T05:54:27;24.60;99.90
40638;DHT22;26336;44.696;10.622;2023-07-31T05:57:32;24.70;99.90
40638;DHT22;26336;44.696;10.622;2023-07-31T06:00:36;24.60;99.90
40638;DHT22;26336;44.696;10.622;2023-07-31T06:03:40;24.60;99.90
40638;DHT22;26336;44.696;10.622;2023-07-31T06:06:44;24.60;99.90
40638;DHT22;26336;44.696;10.622;2023-07-31T06:09:48;24.60;99.90
40638;DHT22;26336;44.696;10.622;2023-07-31T06:12:53;24.70;99.90
40638;DHT22;26336;44.696;10.622;2023-07-31T06:15:57;24.70;99.90
40638;DHT22;26336;44.696;10.622;2023-07-31T06:19:02;24.80;99.90
40638;DHT22;26336;44.696;10.622;2023-07-31T06:22:06;24.80;99.90
40638;DHT22;26336;44.696;10.622;2023-07-31T06:25:11;24.90;99.90
40638;DHT22;26336;44.696;10.622;2023-07-31T06:28:15;24.90;99.90
40638;DHT22;26336;44.696;10.622;2023-07-31T06:31:19;24.90;99.90
40638;DHT22;26336;44.696;10.622;2023-07-31T06:34:26;24.90;99.90
40638;DHT22;26336;44.696;10.622;2023-07-31T06:37:30;25.00;99.90
40638;DHT22;26336;44.696;10.622;2023-07-31T06:40:34;25.00;99.90
40638;DHT22;26336;44.696;10.622;2023-07-31T06:43:38;25.00;99.90
40638;DHT22;26336;44.696;10.622;2023-07-31T06:46:43;24.90;99.90
40638;DHT22;26336;44.696;10.622;2023-07-31T06:49:47;24.90;99.90
40638;DHT22;26336;44.696;10.622;2023-07-31T06:52:54;25.00;99.90
40638;DHT22;26336;44.696;10.622;2023-07-31T06:56:01;25.00;99.90
40638;DHT22;26336;44.696;10.622;2023-07-31T06:59:05;25.20;99.90
40638;DHT22;26336;44.696;10.622;2023-07-31T07:02:09;25.20;99.90
40638;DHT22;26336;44.696;10.622;2023-07-31T07:05:15;25.20;99.90
40638;DHT22;26336;44.696;10.622;2023-07-31T07:08:19;25.20;99.90
40638;DHT22;26336;44.696;10.622;2023-07-31T07:11:23;25.10;99.90
40638;DHT22;26336;44.696;10.622;2023-07-31T07:14:27;25.20;99.90
40638;DHT22;26336;44.696;10.622;2023-07-31T07:17:31;25.20;99.90
40638;DHT22;26336;44.696;10.622;2023-07-31T07:20:35;25.20;99.90
40638;DHT22;26336;44.696;10.622;2023-07-31T07:23:40;25.30;99.90
40638;DHT22;26336;44.696;10.622;2023-07-31T07:26:43;25.30;99.90
40638;DHT22;26336;44.696;10.622;2023-07-31T07:29:53;25.40;99.90
40638;DHT22;26336;44.696;10.622;2023-07-31T07:32:57;25.40;99.90
40638;DHT22;26336;44.696;10.622;2023-07-31T07:36:01;25.40;99.90
40638;DHT22;26336;44.696;10.622;2023-07-31T07:39:09;25.50;99.90
40638;DHT22;26336;44.696;10.622;2023-07-31T07:42:13;25.50;99.90
40638;DHT22;26336;44.696;10.622;2023-07-31T07:45:17;25.60;99.90
40638;DHT22;26336;44.696;10.622;2023-07-31T07:48:22;25.70;99.90
40638;DHT22;26336;44.696;10.622;2023-07-31T07:51:25;25.70;99.90
40638;DHT22;26336;44.696;10.622;2023-07-31T07:54:30;25.70;99.90
40638;DHT22;26336;44.696;10.622;2023-07-31T07:57:34;25.70;99.90
40638;DHT22;26336;44.696;10.622;2023-07-31T08:00:39;25.70;99.90
40638;DHT22;26336;44.696;10.622;2023-07-31T08:03:43;25.70;99.90
40638;DHT22;26336;44.696;10.622;2023-07-31T08:06:47;25.80;99.90
40638;DHT22;26336;44.696;10.622;2023-07-31T08:09:52;25.90;99.90
40638;DHT22;26336;44.696;10.622;2023-07-31T08:12:56;26.00;99.90
40638;DHT22;26336;44.696;10.622;2023-07-31T08:16:00;26.00;99.90
40638;DHT22;26336;44.696;10.622;2023-07-31T08:19:04;26.00;99.90
40638;DHT22;26336;44.696;10.622;2023-07-31T08:22:08;26.10;99.90
40638;DHT22;26336;44.696;10.622;2023-07-31T08:25:12;26.00;99.90
40638;DHT22;26336;44.696;10.622;2023-07-31T08:28:16;26.00;99.90
40638;DHT22;26336;44.696;10.622;2023-07-31T08:31:20;26.10;99.90
40638;DHT22;26336;44.696;10.622;2023-07-31T08:34:24;26.20;99.90
40638;DHT22;26336;44.696;10.622;2023-07-31T08:37:28;26.20;99.90
40638;DHT22;26336;44.696;10.622;2023-07-31T08:40:36;26.20;99.90
40638;DHT22;26336;44.696;10.622;2023-07-31T08:43:42;26.20;99.90
40638;DHT22;26336;44.696;10.622;2023-07-31T08:46:47;26.30;99.90
40638;DHT22;26336;44.696;10.622;2023-07-31T08:49:53;26.50;99.90
40638;DHT22;26336;44.696;10.622;2023-07-31T08:52:58;26.60;99.90
40638;DHT22;26336;44.696;10.622;2023-07-31T08:56:02;26.60;99.90
40638;DHT22;26336;44.696;10.622;2023-07-31T08:59:07;26.70;99.90
40638;DHT22;26336;44.696;10.622;2023-07-31T09:02:14;26.80;99.90
40638;DHT22;26336;44.696;10.622;2023-07-31T09:05:19;26.90;99.90
40638;DHT22;26336;44.696;10.622;2023-07-31T09:08:24;27.00;99.90
40638;DHT22;26336;44.696;10.622;2023-07-31T09:11:30;27.10;99.50
40638;DHT22;26336;44.696;10.622;2023-07-31T09:14:35;27.10;99.80
40638;DHT22;26336;44.696;10.622;2023-07-31T09:17:40;27.20;99.90
40638;DHT22;26336;44.696;10.622;2023-07-31T09:20:45;27.30;99.90
40638;DHT22;26336;44.696;10.622;2023-07-31T09:23:49;27.30;99.80
40638;DHT22;26336;44.696;10.622;2023-07-31T09:26:58;27.40;99.90
40638;DHT22;26336;44.696;10.622;2023-07-31T09:30:05;27.50;99.70
40638;DHT22;26336;44.696;10.622;2023-07-31T09:33:09;27.50;98.80
40638;DHT22;26336;44.696;10.622;2023-07-31T09:36:13;27.50;98.70
40638;DHT22;26336;44.696;10.622;2023-07-31T09:39:18;27.50;98.90
40638;DHT22;26336;44.696;10.622;2023-07-31T09:42:27;27.60;99.60
40638;DHT22;26336;44.696;10.622;2023-07-31T09:45:35;27.70;99.60
40638;DHT22;26336;44.696;10.622;2023-07-31T09:48:40;27.80;99.50
40638;DHT22;26336;44.696;10.622;2023-07-31T09:51:44;27.90;98.70
40638;DHT22;26336;44.696;10.622;2023-07-31T09:54:48;27.90;99.40
40638;DHT22;26336;44.696;10.622;2023-07-31T09:57:54;28.00;99.60
40638;DHT22;26336;44.696;10.622;2023-07-31T10:00:59;28.20;99.10
40638;DHT22;26336;44.696;10.622;2023-07-31T10:04:04;28.20;99.00
40638;DHT22;26336;44.696;10.622;2023-07-31T10:07:09;28.20;99.10
40638;DHT22;26336;44.696;10.622;2023-07-31T10:10:14;28.30;98.80
40638;DHT22;26336;44.696;10.622;2023-07-31T10:13:19;28.40;98.60
40638;DHT22;26336;44.696;10.622;2023-07-31T10:16:26;28.50;98.50
40638;DHT22;26336;44.696;10.622;2023-07-31T10:19:35;28.50;98.50
40638;DHT22;26336;44.696;10.622;2023-07-31T10:22:44;28.60;98.50
40638;DHT22;26336;44.696;10.622;2023-07-31T10:25:53;28.60;98.00
40638;DHT22;26336;44.696;10.622;2023-07-31T10:28:58;28.60;98.10
40638;DHT22;26336;44.696;10.622;2023-07-31T10:32:03;28.60;97.80
40638;DHT22;26336;44.696;10.622;2023-07-31T10:35:11;28.50;97.90
40638;DHT22;26336;44.696;10.622;2023-07-31T10:38:16;28.60;98.10
40638;DHT22;26336;44.696;10.622;2023-07-31T10:41:31;28.70;98.10
40638;DHT22;26336;44.696;10.622;2023-07-31T10:44:35;28.80;98.00
40638;DHT22;26336;44.696;10.622;2023-07-31T10:47:45;28.80;97.70
40638;DHT22;26336;44.696;10.622;2023-07-31T10:50:51;28.90;97.50
40638;DHT22;26336;44.696;10.622;2023-07-31T10:54:11;28.90;96.90
40638;DHT22;26336;44.696;10.622;2023-07-31T10:57:24;29.00;96.80
40638;DHT22;26336;44.696;10.622;2023-07-31T11:00:29;29.00;96.90
40638;DHT22;26336;44.696;10.622;2023-07-31T11:03:47;29.00;96.90
40638;DHT22;26336;44.696;10.622;2023-07-31T11:07:02;29.00;96.70
40638;DHT22;26336;44.696;10.622;2023-07-31T11:10:09;29.00;96.60
40638;DHT22;26336;44.696;10.622;2023-07-31T11:13:13;29.00;96.50
40638;DHT22;26336;44.696;10.622;2023-07-31T11:16:22;29.10;96.40
40638;DHT22;26336;44.696;10.622;2023-07-31T11:19:27;29.10;96.10
40638;DHT22;26336;44.696;10.622;2023-07-31T11:22:34;29.20;95.40
40638;DHT22;26336;44.696;10.622;2023-07-31T11:25:40;29.20;95.40
40638;DHT22;26336;44.696;10.622;2023-07-31T11:28:51;29.30;95.50
40638;DHT22;26336;44.696;10.622;2023-07-31T11:31:58;29.40;95.80
40638;DHT22;26336;44.696;10.622;2023-07-31T11:35:12;29.40;95.90
40638;DHT22;26336;44.696;10.622;2023-07-31T11:38:26;29.50;95.60
40638;DHT22;26336;44.696;10.622;2023-07-31T11:41:30;29.50;95.50
40638;DHT22;26336;44.696;10.622;2023-07-31T11:44:40;29.50;95.70
40638;DHT22;26336;44.696;10.622;2023-07-31T11:47:47;29.50;95.70
40638;DHT22;26336;44.696;10.622;2023-07-31T11:50:53;29.50;95.80
40638;DHT22;26336;44.696;10.622;2023-07-31T11:53:58;29.70;94.60
40638;DHT22;26336;44.696;10.622;2023-07-31T11:57:04;29.70;94.60
40638;DHT22;26336;44.696;10.622;2023-07-31T12:00:09;29.70;94.80
40638;DHT22;26336;44.696;10.622;2023-07-31T12:03:21;29.70;95.10
40638;DHT22;26336;44.696;10.622;2023-07-31T12:06:33;29.70;95.30
40638;DHT22;26336;44.696;10.622;2023-07-31T12:09:38;29.60;95.20
40638;DHT22;26336;44.696;10.622;2023-07-31T12:12:42;29.50;95.40
40638;DHT22;26336;44.696;10.622;2023-07-31T12:15:48;29.50;95.10
40638;DHT22;26336;44.696;10.622;2023-07-31T12:18:52;29.60;95.20
40638;DHT22;26336;44.696;10.622;2023-07-31T12:21:58;29.70;95.10
40638;DHT22;26336;44.696;10.622;2023-07-31T12:25:04;29.60;95.30
40638;DHT22;26336;44.696;10.622;2023-07-31T12:28:10;29.70;94.70
40638;DHT22;26336;44.696;10.622;2023-07-31T12:31:20;29.80;94.80
40638;DHT22;26336;44.696;10.622;2023-07-31T12:34:25;29.80;94.70
40638;DHT22;26336;44.696;10.622;2023-07-31T12:37:35;29.70;95.00
40638;DHT22;26336;44.696;10.622;2023-07-31T12:40:41;29.80;95.10
40638;DHT22;26336;44.696;10.622;2023-07-31T12:43:46;29.80;94.80
40638;DHT22;26336;44.696;10.622;2023-07-31T12:46:50;29.80;94.80
40638;DHT22;26336;44.696;10.622;2023-07-31T12:49:56;29.90;94.40
40638;DHT22;26336;44.696;10.622;2023-07-31T12:53:00;29.90;94.80
40638;DHT22;26336;44.696;10.622;2023-07-31T12:56:04;29.90;94.60
40638;DHT22;26336;44.696;10.622;2023-07-31T12:59:09;30.10;94.30
40638;DHT22;26336;44.696;10.622;2023-07-31T13:02:13;30.10;94.50
40638;DHT22;26336;44.696;10.622;2023-07-31T13:05:18;30.10;94.40
40638;DHT22;26336;44.696;10.622;2023-07-31T13:08:25;30.20;94.10
40638;DHT22;26336;44.696;10.622;2023-07-31T13:11:35;30.20;94.00
40638;DHT22;26336;44.696;10.622;2023-07-31T13:14:39;30.20;93.90
40638;DHT22;26336;44.696;10.622;2023-07-31T13:17:43;30.20;93.80
40638;DHT22;26336;44.696;10.622;2023-07-31T13:20:47;30.10;93.60
40638;DHT22;26336;44.696;10.622;2023-07-31T13:23:50;30.10;93.70
40638;DHT22;26336;44.696;10.622;2023-07-31T13:26:56;30.20;93.30
40638;DHT22;26336;44.696;10.622;2023-07-31T13:30:00;30.20;93.30
40638;DHT22;26336;44.696;10.622;2023-07-31T13:33:10;30.20;93.40
40638;DHT22;26336;44.696;10.622;2023-07-31T13:36:14;30.20;93.70
40638;DHT22;26336;44.696;10.622;2023-07-31T13:39:18;30.30;93.90
40638;DHT22;26336;44.696;10.622;2023-07-31T13:42:22;30.30;93.50
40638;DHT22;26336;44.696;10.622;2023-07-31T13:45:26;30.30;93.50
40638;DHT22;26336;44.696;10.622;2023-07-31T13:48:36;30.20;93.70
40638;DHT22;26336;44.696;10.622;2023-07-31T13:51:40;30.20;93.10
40638;DHT22;26336;44.696;10.622;2023-07-31T13:54:44;30.30;93.40
40638;DHT22;26336;44.696;10.622;2023-07-31T13:57:48;30.30;93.40
40638;DHT22;26336;44.696;10.622;2023-07-31T14:00:52;30.30;93.50
40638;DHT22;26336;44.696;10.622;2023-07-31T14:03:56;30.30;93.60
40638;DHT22;26336;44.696;10.622;2023-07-31T14:07:00;30.30;93.40
40638;DHT22;26336;44.696;10.622;2023-07-31T14:10:07;30.40;92.90
40638;DHT22;26336;44.696;10.622;2023-07-31T14:13:13;30.40;93.00
40638;DHT22;26336;44.696;10.622;2023-07-31T14:16:20;30.40;93.10
40638;DHT22;26336;44.696;10.622;2023-07-31T14:19:24;30.40;93.00
40638;DHT22;26336;44.696;10.622;2023-07-31T14:22:36;30.40;92.90
40638;DHT22;26336;44.696;10.622;2023-07-31T14:25:41;30.50;92.90
40638;DHT22;26336;44.696;10.622;2023-07-31T14:28:45;30.40;93.00
40638;DHT22;26336;44.696;10.622;2023-07-31T14:31:52;30.40;92.70
40638;DHT22;26336;44.696;10.622;2023-07-31T14:34:56;30.50;93.20
40638;DHT22;26336;44.696;10.622;2023-07-31T14:38:01;30.40;92.50
40638;DHT22;26336;44.696;10.622;2023-07-31T14:41:05;30.50;92.50
40638;DHT22;26336;44.696;10.622;2023-07-31T14:44:08;30.40;93.00
40638;DHT22;26336;44.696;10.622;2023-07-31T14:47:12;30.50;92.20
40638;DHT22;26336;44.696;10.622;2023-07-31T14:50:17;30.50;92.20
40638;DHT22;26336;44.696;10.622;2023-07-31T14:53:24;30.50;92.20
40638;DHT22;26336;44.696;10.622;2023-07-31T14:56:28;30.40;92.40
40638;DHT22;26336;44.696;10.622;2023-07-31T14:59:34;30.40;92.30
40638;DHT22;26336;44.696;10.622;2023-07-31T15:02:46;30.40;92.70
40638;DHT22;26336;44.696;10.622;2023-07-31T15:05:49;30.40;92.90
40638;DHT22;26336;44.696;10.622;2023-07-31T15:08:53;30.40;92.40
40638;DHT22;26336;44.696;10.622;2023-07-31T15:11:57;30.40;91.90
40638;DHT22;26336;44.696;10.622;2023-07-31T15:15:01;30.40;91.80
40638;DHT22;26336;44.696;10.622;2023-07-31T15:18:06;30.40;92.10
40638;DHT22;26336;44.696;10.622;2023-07-31T15:21:13;30.40;92.10
40638;DHT22;26336;44.696;10.622;2023-07-31T15:24:19;30.40;92.10
40638;DHT22;26336;44.696;10.622;2023-07-31T15:27:24;30.40;92.50
40638;DHT22;26336;44.696;10.622;2023-07-31T15:30:29;30.30;91.80
40638;DHT22;26336;44.696;10.622;2023-07-31T15:33:33;30.20;92.40
40638;DHT22;26336;44.696;10.622;2023-07-31T15:36:38;30.10;92.80
40638;DHT22;26336;44.696;10.622;2023-07-31T15:39:41;30.10;93.20
40638;DHT22;26336;44.696;10.622;2023-07-31T15:42:48;30.20;92.80
40638;DHT22;26336;44.696;10.622;2023-07-31T15:45:55;30.20;92.80
40638;DHT22;26336;44.696;10.622;2023-07-31T15:48:59;30.10;92.80
40638;DHT22;26336;44.696;10.622;2023-07-31T15:52:04;30.10;92.90
40638;DHT22;26336;44.696;10.622;2023-07-31T15:55:09;30.20;93.10
40638;DHT22;26336;44.696;10.622;2023-07-31T15:58:13;30.10;92.90
40638;DHT22;26336;44.696;10.622;2023-07-31T16:01:17;30.10;93.10
40638;DHT22;26336;44.696;10.622;2023-07-31T16:04:21;30.10;93.00
40638;DHT22;26336;44.696;10.622;2023-07-31T16:07:25;30.10;93.30
40638;DHT22;26336;44.696;10.622;2023-07-31T16:10:31;29.90;93.50
40638;DHT22;26336;44.696;10.622;2023-07-31T16:13:35;29.80;93.60
40638;DHT22;26336;44.696;10.622;2023-07-31T16:16:40;29.70;93.70
40638;DHT22;26336;44.696;10.622;2023-07-31T16:19:44;29.60;92.80
40638;DHT22;26336;44.696;10.622;2023-07-31T16:22:51;29.60;92.50
40638;DHT22;26336;44.696;10.622;2023-07-31T16:25:56;29.70;92.90
40638;DHT22;26336;44.696;10.622;2023-07-31T16:29:00;29.60;92.40
40638;DHT22;26336;44.696;10.622;2023-07-31T16:32:04;29.60;92.70
40638;DHT22;26336;44.696;10.622;2023-07-31T16:35:08;29.60;93.00
40638;DHT22;26336;44.696;10.622;2023-07-31T16:38:12;29.60;92.80
40638;DHT22;26336;44.696;10.622;2023-07-31T16:41:16;29.60;93.20
40638;DHT22;26336;44.696;10.622;2023-07-31T16:44:20;29.50;93.20
40638;DHT22;26336;44.696;10.622;2023-07-31T16:47:24;29.40;93.10
40638;DHT22;26336;44.696;10.622;2023-07-31T16:50:28;29.40;93.20
40638;DHT22;26336;44.696;10.622;2023-07-31T16:53:32;29.40;93.40
40638;DHT22;26336;44.696;10.622;2023-07-31T16:56:36;29.40;93.60
40638;DHT22;26336;44.696;10.622;2023-07-31T16:59:41;29.40;93.80
40638;DHT22;26336;44.696;10.622;2023-07-31T17:02:44;29.40;94.00
40638;DHT22;26336;44.696;10.622;2023-07-31T17:05:48;29.40;94.00
40638;DHT22;26336;44.696;10.622;2023-07-31T17:08:52;29.40;94.00
40638;DHT22;26336;44.696;10.622;2023-07-31T17:11:56;29.40;94.10
40638;DHT22;26336;44.696;10.622;2023-07-31T17:15:00;29.40;94.00
40638;DHT22;26336;44.696;10.622;2023-07-31T17:18:04;29.30;94.10
40638;DHT22;26336;44.696;10.622;2023-07-31T17:21:08;29.30;94.00
40638;DHT22;26336;44.696;10.622;2023-07-31T17:24:13;29.30;94.00
40638;DHT22;26336;44.696;10.622;2023-07-31T17:27:17;29.30;94.10
40638;DHT22;26336;44.696;10.622;2023-07-31T17:30:21;29.20;94.10
40638;DHT22;26336;44.696;10.622;2023-07-31T17:33:25;29.20;94.10
40638;DHT22;26336;44.696;10.622;2023-07-31T17:36:29;29.20;94.30
40638;DHT22;26336;44.696;10.622;2023-07-31T17:39:39;29.20;94.40
40638;DHT22;26336;44.696;10.622;2023-07-31T17:42:43;29.20;94.50
40638;DHT22;26336;44.696;10.622;2023-07-31T17:45:47;29.10;94.50
40638;DHT22;26336;44.696;10.622;2023-07-31T17:48:51;29.20;94.60
40638;DHT22;26336;44.696;10.622;2023-07-31T17:51:55;29.20;94.70
40638;DHT22;26336;44.696;10.622;2023-07-31T17:55:00;29.10;94.80
40638;DHT22;26336;44.696;10.622;2023-07-31T17:58:03;29.10;94.70
40638;DHT22;26336;44.696;10.622;2023-07-31T18:01:08;29.10;94.80
40638;DHT22;26336;44.696;10.622;2023-07-31T18:04:14;29.10;94.90
40638;DHT22;26336;44.696;10.622;2023-07-31T18:07:19;29.10;95.00
40638;DHT22;26336;44.696;10.622;2023-07-31T18:10:49;29.10;95.30
40638;DHT22;26336;44.696;10.622;2023-07-31T18:13:53;29.10;95.30
40638;DHT22;26336;44.696;10.622;2023-07-31T18:16:57;29.10;95.50
40638;DHT22;26336;44.696;10.622;2023-07-31T18:20:01;29.00;95.80
40638;DHT22;26336;44.696;10.622;2023-07-31T18:23:09;29.00;95.80
40638;DHT22;26336;44.696;10.622;2023-07-31T18:26:47;29.00;95.90
40638;DHT22;26336;44.696;10.622;2023-07-31T18:30:04;29.00;96.20
40638;DHT22;26336;44.696;10.622;2023-07-31T18:33:08;29.00;96.20
40638;DHT22;26336;44.696;10.622;2023-07-31T18:36:12;29.00;96.20
40638;DHT22;26336;44.696;10.622;2023-07-31T18:39:16;29.00;96.10
40638;DHT22;26336;44.696;10.622;2023-07-31T18:42:20;29.00;96.40
40638;DHT22;26336;44.696;10.622;2023-07-31T18:45:24;29.00;96.50
40638;DHT22;26336;44.696;10.622;2023-07-31T18:48:28;29.00;96.50
40638;DHT22;26336;44.696;10.622;2023-07-31T18:51:36;28.90;96.60
40638;DHT22;26336;44.696;10.622;2023-07-31T18:54:41;29.00;96.90
40638;DHT22;26336;44.696;10.622;2023-07-31T18:57:45;28.90;96.90
40638;DHT22;26336;44.696;10.622;2023-07-31T19:00:52;28.90;96.70
40638;DHT22;26336;44.696;10.622;2023-07-31T19:03:56;28.80;97.10
40638;DHT22;26336;44.696;10.622;2023-07-31T19:07:03;28.70;97.10
40638;DHT22;26336;44.696;10.622;2023-07-31T19:11:03;28.70;97.00
40638;DHT22;26336;44.696;10.622;2023-07-31T19:15:20;28.70;97.20
40638;DHT22;26336;44.696;10.622;2023-07-31T19:18:23;28.50;97.40
40638;DHT22;26336;44.696;10.622;2023-07-31T19:21:28;28.60;97.40